createdAt,value
2023-01-02T00:00:21.241Z,5.20
2023-01-02T00:03:12.673Z,4.90
2023-01-02T00:06:07.212Z,5.40
2023-01-02T00:08:57.467Z,5.00
2023-01-02T00:11:48.160Z,5.20
2023-01-02T00:14:40.725Z,4.70
2023-01-02T00:17:31.055Z,4.70
2023-01-02T00:20:21.803Z,5.00
2023-01-02T00:23:11.676Z,5.10
2023-01-02T00:26:02.007Z,4.70
2023-01-02T00:28:52.054Z,5.70
2023-01-02T00:31:42.842Z,5.20
2023-01-02T00:34:33.271Z,5.20
2023-01-02T00:37:24.056Z,5.50
2023-01-02T00:40:15.048Z,5.00
2023-01-02T00:43:05.286Z,4.80
2023-01-02T00:45:55.344Z,5.20
2023-01-02T00:48:45.941Z,4.90
2023-01-02T00:51:36.238Z,4.90
2023-01-02T00:54:26.509Z,5.10
2023-01-02T00:57:17.334Z,4.90
2023-01-02T01:00:09.130Z,4.60
2023-01-02T01:03:00.540Z,4.10
2023-01-02T01:05:50.866Z,4.70
2023-01-02T01:08:41.905Z,4.40
2023-01-02T01:11:32.987Z,4.40
2023-01-02T01:14:23.743Z,4.40
2023-01-02T01:17:13.673Z,4.50
2023-01-02T01:20:03.716Z,4.40
2023-01-02T01:22:53.944Z,4.50
2023-01-02T01:25:43.727Z,4.30
2023-01-02T01:28:33.641Z,4.20
2023-01-02T01:31:25.006Z,4.60
2023-01-02T01:34:15.965Z,4.30
2023-01-02T01:37:06.840Z,4.40
2023-01-02T01:39:57.221Z,4.50
2023-01-02T01:42:50.295Z,3.90
2023-01-02T01:45:45.343Z,4.30
2023-01-02T01:48:36.233Z,4.70
2023-01-02T01:51:28.619Z,4.10
2023-01-02T01:54:23.652Z,4.10
2023-01-02T01:57:19.263Z,4.20
2023-01-02T02:00:12.909Z,4.00
2023-01-02T02:03:06.466Z,5.10
2023-01-02T02:05:58.067Z,4.10
2023-01-02T02:08:54.810Z,4.30
2023-01-02T02:11:45.329Z,4.50
2023-01-02T02:14:35.865Z,4.00
2023-01-02T02:17:34.553Z,3.90
2023-01-02T02:20:34.936Z,3.70
2023-01-02T02:23:57.215Z,3.90
2023-01-02T02:27:08.507Z,3.90
2023-01-02T02:30:15.797Z,4.40
2023-01-02T02:33:21.993Z,4.20
2023-01-02T02:36:20.429Z,4.00
2023-01-02T02:39:19.085Z,4.50
2023-01-02T02:42:23.254Z,4.20
2023-01-02T02:45:25.145Z,4.60
2023-01-02T02:48:24.642Z,3.80
2023-01-02T02:51:21.192Z,4.60
2023-01-02T02:54:17.764Z,4.10
2023-01-02T02:57:12.532Z,4.30
2023-01-02T03:00:04.015Z,4.70
2023-01-02T03:02:54.308Z,4.20
2023-01-02T03:05:53.204Z,4.10
2023-01-02T03:08:48.403Z,3.90
2023-01-02T03:11:49.306Z,3.90
2023-01-02T03:14:44.881Z,4.00
2023-01-02T03:17:48.551Z,3.90
2023-01-02T03:20:42.653Z,4.30
2023-01-02T03:23:37.140Z,4.30
2023-01-02T03:26:32.017Z,3.90
2023-01-02T03:29:29.300Z,3.80
2023-01-02T03:32:24.652Z,4.00
2023-01-02T03:35:19.385Z,4.00
2023-01-02T03:38:16.428Z,4.30
2023-01-02T03:41:13.635Z,4.10
2023-01-02T03:44:05.584Z,3.90
2023-01-02T03:47:00.728Z,4.10
2023-01-02T03:49:56.083Z,3.70
2023-01-02T03:52:46.241Z,4.00
2023-01-02T03:55:41.536Z,3.90
2023-01-02T03:58:41.779Z,3.60
2023-01-02T04:01:40.703Z,3.40
2023-01-02T04:04:46.835Z,3.80
2023-01-02T04:07:49.246Z,3.70
2023-01-02T04:10:41.092Z,3.50
2023-01-02T04:13:38.999Z,3.40
2023-01-02T04:16:35.909Z,3.60
2023-01-02T04:19:29.745Z,3.60
2023-01-02T04:22:24.051Z,4.00
2023-01-02T04:25:18.213Z,3.50
2023-01-02T04:28:17.814Z,4.00
2023-01-02T04:31:11.485Z,3.50
2023-01-02T04:34:04.089Z,4.00
2023-01-02T04:36:54.471Z,3.50
2023-01-02T04:39:45.144Z,3.70
2023-01-02T04:42:36.040Z,3.50
2023-01-02T04:45:28.355Z,3.30
2023-01-02T04:48:19.684Z,3.70
2023-01-02T04:51:09.779Z,3.80
2023-01-02T04:54:00.267Z,3.50
2023-01-02T04:56:50.560Z,3.60
2023-01-02T04:59:40.849Z,3.50
2023-01-02T05:02:30.904Z,3.10
2023-01-02T05:05:21.450Z,3.50
2023-01-02T05:08:16.162Z,3.40
2023-01-02T05:11:10.078Z,3.70
2023-01-02T05:14:06.991Z,3.60
2023-01-02T05:16:57.452Z,3.10
2023-01-02T05:19:47.278Z,3.20
2023-01-02T05:22:56.475Z,3.60
2023-01-02T05:25:46.148Z,3.90
2023-01-02T05:28:38.797Z,3.80
2023-01-02T05:31:29.710Z,3.80
2023-01-02T05:34:20.299Z,3.50
2023-01-02T05:37:10.823Z,4.10
2023-01-02T05:40:01.526Z,3.90
2023-01-02T05:42:52.319Z,3.80
2023-01-02T05:45:42.792Z,3.90
2023-01-02T05:48:32.801Z,3.60
2023-01-02T05:51:23.074Z,3.90
2023-01-02T05:54:13.296Z,3.90
2023-01-02T05:57:03.244Z,4.00
2023-01-02T05:59:53.765Z,4.00
2023-01-02T06:02:48.225Z,4.10
2023-01-02T06:05:39.052Z,4.50
2023-01-02T06:08:29.367Z,4.40
2023-01-02T06:11:19.823Z,4.50
2023-01-02T06:14:11.356Z,4.70
2023-01-02T06:17:02.086Z,4.40
2023-01-02T06:19:54.235Z,4.00
2023-01-02T06:22:44.807Z,4.70
2023-01-02T06:25:36.695Z,4.20
2023-01-02T06:28:26.965Z,4.30
2023-01-02T06:31:19.378Z,4.40
2023-01-02T06:34:11.207Z,4.20
2023-01-02T06:37:07.679Z,4.10
2023-01-02T06:40:01.886Z,4.30
2023-01-02T06:42:54.823Z,4.30
2023-01-02T06:45:49.200Z,4.50
2023-01-02T06:48:39.137Z,4.50
2023-01-02T06:51:29.322Z,5.00
2023-01-02T06:54:19.279Z,4.50
2023-01-02T06:57:09.447Z,4.60
2023-01-02T06:59:59.676Z,5.10
2023-01-02T07:02:50.134Z,6.00
2023-01-02T07:05:40.516Z,6.10
2023-01-02T07:08:31.764Z,5.70
2023-01-02T07:11:23.845Z,4.60
2023-01-02T07:14:14.051Z,4.40
2023-01-02T07:17:04.228Z,4.00
2023-01-02T07:19:58.247Z,4.60
2023-01-02T07:22:54.581Z,4.60
2023-01-02T07:25:44.928Z,4.70
2023-01-02T07:28:36.029Z,4.50
2023-01-02T07:31:29.360Z,4.40
2023-01-02T07:34:19.501Z,4.10
2023-01-02T07:37:10.120Z,4.10
2023-01-02T07:40:00.655Z,4.20
2023-01-02T07:42:50.941Z,4.70
2023-01-02T07:45:45.024Z,4.30
2023-01-02T07:48:40.756Z,4.40
2023-01-02T07:51:32.220Z,4.00
2023-01-02T07:54:24.247Z,3.80
2023-01-02T07:57:14.860Z,3.90
2023-01-02T08:00:07.416Z,3.80
2023-01-02T08:03:03.709Z,3.90
2023-01-02T08:05:53.906Z,3.80
2023-01-02T08:08:44.444Z,4.00
2023-01-02T08:11:35.063Z,3.30
2023-01-02T08:14:25.707Z,3.70
2023-01-02T08:17:15.980Z,3.70
2023-01-02T08:20:08.861Z,4.00
2023-01-02T08:23:00.055Z,3.70
2023-01-02T08:25:57.254Z,3.70
2023-01-02T08:28:48.169Z,3.70
2023-01-02T08:31:43.488Z,4.10
2023-01-02T08:34:35.421Z,4.10
2023-01-02T08:37:26.227Z,4.50
2023-01-02T08:40:17.150Z,4.30
2023-01-02T08:43:07.913Z,4.50
2023-01-02T08:45:58.178Z,4.20
2023-01-02T08:48:48.596Z,3.90
2023-01-02T08:51:38.626Z,3.50
2023-01-02T08:54:28.944Z,3.70
2023-01-02T08:57:18.753Z,3.90
2023-01-02T09:00:11.243Z,4.30
2023-01-02T09:03:01.560Z,4.00
2023-01-02T09:05:51.931Z,3.80
2023-01-02T09:08:42.812Z,4.20
2023-01-02T09:11:35.359Z,4.40
2023-01-02T09:14:26.509Z,4.70
2023-01-02T09:17:17.282Z,4.10
2023-01-02T09:20:08.415Z,4.10
2023-01-02T09:22:58.463Z,4.70
2023-01-02T09:25:48.769Z,5.30
2023-01-02T09:28:39.426Z,4.70
2023-01-02T09:31:29.480Z,5.10
2023-01-02T09:34:19.551Z,4.80
2023-01-02T09:37:10.462Z,4.50
2023-01-02T09:40:00.811Z,4.20
2023-01-02T09:42:53.408Z,4.80
2023-01-02T09:45:47.803Z,5.30
2023-01-02T09:48:38.977Z,6.70
2023-01-02T09:51:30.208Z,6.30
2023-01-02T09:54:26.759Z,6.90
2023-01-02T09:57:31.437Z,7.40
2023-01-02T10:00:24.804Z,7.10
2023-01-02T10:03:25.357Z,7.10
2023-01-02T10:06:19.337Z,7.20
2023-01-02T10:09:20.653Z,6.40
2023-01-02T10:12:21.010Z,5.90
2023-01-02T10:15:27.272Z,5.20
2023-01-02T10:18:26.175Z,4.90
2023-01-02T10:21:22.285Z,5.00
2023-01-02T10:24:17.973Z,4.30
2023-01-02T10:27:13.765Z,5.00
2023-01-02T10:30:16.188Z,4.80
2023-01-02T10:33:12.421Z,5.20
2023-01-02T10:36:04.754Z,5.30
2023-01-02T10:38:55.488Z,4.90
2023-01-02T10:41:50.347Z,4.40
2023-01-02T10:44:42.213Z,4.70
2023-01-02T10:47:37.867Z,4.30
2023-01-02T10:50:31.164Z,4.60
2023-01-02T10:53:32.079Z,4.60
2023-01-02T10:56:22.883Z,5.80
2023-01-02T10:59:24.193Z,7.30
2023-01-02T11:02:28.891Z,12.30
2023-01-02T11:05:24.616Z,10.90
2023-01-02T11:08:18.473Z,10.80
2023-01-02T11:11:18.822Z,10.20
2023-01-02T11:14:11.556Z,9.80
2023-01-02T11:17:11.556Z,10.90
2023-01-02T11:20:01.116Z,11.70
2023-01-02T11:22:51.629Z,11.20
2023-01-02T11:25:44.183Z,9.90
2023-01-02T11:28:36.335Z,9.30
2023-01-02T11:31:26.803Z,7.70
2023-01-02T11:34:24.506Z,7.20
2023-01-02T11:37:20.042Z,7.30
2023-01-02T11:40:29.065Z,7.60
2023-01-02T11:43:41.727Z,8.10
2023-01-02T11:46:34.765Z,7.90
2023-01-02T11:49:28.212Z,8.00
2023-01-02T11:52:23.416Z,8.30
2023-01-02T11:55:35.276Z,8.00
2023-01-02T11:58:30.213Z,8.00
2023-01-02T12:01:28.343Z,7.30
2023-01-02T12:04:19.206Z,7.10
2023-01-02T12:07:29.127Z,7.60
2023-01-02T12:10:30.671Z,7.20
2023-01-02T12:13:36.983Z,7.60
2023-01-02T12:16:43.251Z,7.20
2023-01-02T12:20:05.197Z,5.90
2023-01-02T12:23:31.939Z,6.30
2023-01-02T12:26:29.678Z,6.60
2023-01-02T12:29:47.743Z,6.10
2023-01-02T12:33:01.765Z,6.00
2023-01-02T12:36:08.000Z,6.10
2023-01-02T12:39:13.155Z,6.20
2023-01-02T12:42:17.748Z,6.00
2023-01-02T12:45:17.099Z,5.90
2023-01-02T12:48:26.047Z,7.30
2023-01-02T12:51:21.552Z,7.10
2023-01-02T12:54:35.203Z,6.40
2023-01-02T12:57:32.692Z,6.00
2023-01-02T13:00:38.267Z,5.70
2023-01-02T13:03:50.644Z,5.60
2023-01-02T13:06:51.319Z,5.70
2023-01-02T13:09:43.675Z,5.00
2023-01-02T13:12:36.538Z,5.40
2023-01-02T13:15:30.108Z,5.00
2023-01-02T13:18:32.686Z,5.30
2023-01-02T13:21:29.789Z,4.80
2023-01-02T13:24:24.270Z,5.40
2023-01-02T13:27:14.720Z,5.30
2023-01-02T13:30:07.342Z,5.40
2023-01-02T13:32:59.800Z,5.20
2023-01-02T13:35:51.495Z,5.50
2023-01-02T13:38:43.810Z,6.20
2023-01-02T13:41:59.772Z,6.90
2023-01-02T13:44:55.505Z,6.50
2023-01-02T13:47:53.208Z,5.40
2023-01-02T13:50:43.823Z,5.60
2023-01-02T13:53:43.078Z,5.90
2023-01-02T13:56:33.559Z,5.50
2023-01-02T13:59:51.222Z,5.80
2023-01-02T14:02:41.566Z,5.80
2023-01-02T14:06:03.974Z,5.70
2023-01-02T14:09:11.453Z,5.90
2023-01-02T14:12:04.390Z,5.30
2023-01-02T14:14:56.247Z,5.60
2023-01-02T14:17:58.790Z,5.80
2023-01-02T14:20:52.637Z,6.10
2023-01-02T14:24:16.870Z,5.80
2023-01-02T14:27:02.835Z,5.60
2023-01-02T14:29:56.321Z,5.40
2023-01-02T14:32:48.682Z,5.60
2023-01-02T14:35:42.445Z,5.50
2023-01-02T14:38:39.054Z,5.60
2023-01-02T14:42:19.117Z,5.60
2023-01-02T14:45:14.301Z,5.50
2023-01-02T14:48:11.008Z,6.10
2023-01-02T14:51:06.284Z,5.80
2023-01-02T14:54:01.020Z,5.60
2023-01-02T14:56:54.858Z,5.80
2023-01-02T14:59:48.311Z,5.60
2023-01-02T15:02:43.572Z,6.40
2023-01-02T15:05:45.888Z,6.20
2023-01-02T15:08:41.137Z,6.80
2023-01-02T15:11:48.589Z,7.00
2023-01-02T15:14:39.369Z,6.80
2023-01-02T15:17:30.222Z,6.60
2023-01-02T15:20:22.892Z,6.20
2023-01-02T15:23:22.052Z,6.30
2023-01-02T15:26:31.443Z,5.80
2023-01-02T15:29:26.834Z,5.90
2023-01-02T15:32:22.831Z,6.00
2023-01-02T15:35:21.450Z,6.60
2023-01-02T15:38:24.297Z,6.20
2023-01-02T15:41:21.149Z,6.60
2023-01-02T15:44:32.345Z,6.60
2023-01-02T15:47:27.933Z,6.70
2023-01-02T15:50:23.403Z,6.40
2023-01-02T15:53:25.129Z,6.10
2023-01-02T15:56:32.618Z,6.50
2023-01-02T15:59:35.703Z,6.30
2023-01-02T16:02:46.279Z,7.20
2023-01-02T16:05:51.467Z,7.90
2023-01-02T16:08:48.857Z,7.90
2023-01-02T16:11:47.931Z,7.50
2023-01-02T16:14:44.837Z,8.00
2023-01-02T16:17:40.014Z,8.90
2023-01-02T16:20:31.549Z,8.40
2023-01-02T16:23:23.567Z,8.90
2023-01-02T16:26:15.046Z,8.00
2023-01-02T16:29:05.109Z,7.40
2023-01-02T16:31:58.659Z,6.80
2023-01-02T16:34:59.590Z,7.20
2023-01-02T16:37:58.860Z,7.40
2023-01-02T16:41:01.536Z,6.70
2023-01-02T16:43:52.276Z,6.60
2023-01-02T16:46:43.944Z,6.80
2023-01-02T16:49:33.815Z,7.60
2023-01-02T16:52:23.562Z,7.80
2023-01-02T16:55:19.172Z,7.40
2023-01-02T16:58:10.284Z,7.10
2023-01-02T17:01:00.994Z,7.20
2023-01-02T17:03:51.081Z,7.10
2023-01-02T17:06:41.182Z,6.80
2023-01-02T17:09:31.449Z,7.20
2023-01-02T17:12:21.847Z,7.60
2023-01-02T17:15:15.782Z,7.10
2023-01-02T17:18:06.236Z,7.80
2023-01-02T17:20:56.208Z,7.10
2023-01-02T17:23:46.389Z,7.90
2023-01-02T17:26:39.313Z,8.00
2023-01-02T17:29:31.989Z,8.80
2023-01-02T17:32:21.934Z,8.80
2023-01-02T17:35:13.487Z,9.10
2023-01-02T17:38:04.329Z,7.50
2023-01-02T17:40:59.764Z,7.10
2023-01-02T17:44:01.684Z,6.10
2023-01-02T17:47:30.784Z,6.70
2023-01-02T17:50:05.658Z,6.10
2023-01-02T17:52:55.606Z,6.00
2023-01-02T17:56:21.840Z,6.00
2023-01-02T17:59:04.581Z,5.90
2023-01-02T18:01:54.662Z,6.20
2023-01-02T18:04:49.471Z,6.40
2023-01-02T18:07:44.735Z,5.80
2023-01-02T18:10:36.164Z,6.00
2023-01-02T18:13:27.911Z,6.00
2023-01-02T18:16:21.245Z,7.20
2023-01-02T18:19:14.622Z,7.40
2023-01-02T18:22:10.125Z,7.30
2023-01-02T18:25:01.336Z,7.20
2023-01-02T18:27:51.731Z,6.70
2023-01-02T18:30:42.536Z,7.30
2023-01-02T18:33:34.451Z,7.20
2023-01-02T18:36:25.937Z,7.60
2023-01-02T18:39:25.851Z,7.70
2023-01-02T18:42:26.615Z,7.20
2023-01-02T18:45:19.662Z,6.50
2023-01-02T18:48:22.982Z,6.80
2023-01-02T18:51:18.521Z,6.80
2023-01-02T18:54:16.127Z,6.70
2023-01-02T18:57:13.693Z,7.00
2023-01-02T19:00:20.305Z,6.50
2023-01-02T19:03:19.692Z,6.40
2023-01-02T19:06:22.858Z,7.10
2023-01-02T19:09:16.471Z,6.80
2023-01-02T19:12:42.045Z,6.70
2023-01-02T19:15:43.160Z,6.40
2023-01-02T19:18:38.984Z,7.70
2023-01-02T19:21:31.009Z,8.30
2023-01-02T19:24:24.253Z,8.10
2023-01-02T19:27:24.608Z,8.20
2023-01-02T19:30:30.623Z,8.10
2023-01-02T19:33:40.031Z,7.70
2023-01-02T19:36:40.048Z,7.10
2023-01-02T19:39:36.078Z,7.60
2023-01-02T19:42:29.522Z,7.10
2023-01-02T19:45:22.490Z,7.40
2023-01-02T19:48:17.901Z,6.80
2023-01-02T19:51:08.579Z,6.20
2023-01-02T19:54:03.813Z,6.80
2023-01-02T19:56:55.130Z,7.50
2023-01-02T19:59:46.798Z,8.70
2023-01-02T20:02:37.915Z,8.70
2023-01-02T20:05:28.955Z,8.80
2023-01-02T20:08:19.118Z,9.20
2023-01-02T20:11:30.614Z,7.80
2023-01-02T20:14:21.431Z,7.70
2023-01-02T20:17:11.784Z,7.30
2023-01-02T20:20:02.375Z,7.80
2023-01-02T20:22:53.011Z,7.70
2023-01-02T20:25:43.399Z,8.30
2023-01-02T20:28:34.007Z,7.80
2023-01-02T20:31:24.098Z,8.80
2023-01-02T20:34:13.757Z,7.60
2023-01-02T20:37:03.883Z,8.10
2023-01-02T20:39:54.944Z,8.60
2023-01-02T20:42:44.872Z,8.50
2023-01-02T20:45:34.836Z,7.80
2023-01-02T20:48:25.293Z,8.10
2023-01-02T20:51:15.792Z,7.20
2023-01-02T20:54:07.228Z,7.40
2023-01-02T21:00:01.644Z,7.60
2023-01-02T21:02:52.269Z,7.30
2023-01-02T21:05:42.938Z,7.20
2023-01-02T21:08:32.987Z,6.20
2023-01-02T21:11:22.577Z,6.50
2023-01-02T21:14:12.298Z,6.20
2023-01-02T21:17:01.941Z,6.30
2023-01-02T21:19:51.492Z,7.20
2023-01-02T21:22:41.702Z,7.40
2023-01-02T21:25:31.767Z,7.60
2023-01-02T21:28:22.829Z,7.20
2023-01-02T21:31:13.348Z,7.00
2023-01-02T21:34:03.224Z,6.80
2023-01-02T21:36:53.010Z,7.70
2023-01-02T21:39:48.372Z,7.30
2023-01-02T21:42:44.637Z,6.30
2023-01-02T21:45:35.590Z,7.10
2023-01-02T21:48:25.733Z,6.80
2023-01-02T21:51:16.726Z,6.80
2023-01-02T21:54:06.540Z,6.60
2023-01-02T21:56:56.489Z,6.40
2023-01-02T21:59:46.069Z,6.60
2023-01-02T22:02:38.844Z,6.10
2023-01-02T22:05:29.259Z,6.20
2023-01-02T22:08:20.598Z,5.80
2023-01-02T22:11:28.328Z,5.90
2023-01-02T22:14:18.146Z,6.20
2023-01-02T22:17:10.295Z,6.90
2023-01-02T22:20:00.224Z,6.30
2023-01-02T22:22:50.979Z,6.00
2023-01-02T22:25:41.530Z,5.90
2023-01-02T22:28:31.919Z,5.60
2023-01-02T22:31:22.138Z,5.40
2023-01-02T22:34:13.115Z,5.70
2023-01-02T22:37:03.110Z,6.00
2023-01-02T22:39:53.902Z,5.20
2023-01-02T22:43:01.727Z,5.30
2023-01-02T22:45:54.603Z,4.80
2023-01-02T22:48:46.764Z,4.70
2023-01-02T22:52:06.005Z,4.80
2023-01-02T22:54:47.970Z,4.80
2023-01-02T22:57:38.011Z,4.90
2023-01-02T23:00:28.217Z,5.30
2023-01-02T23:03:18.944Z,5.00
2023-01-02T23:06:09.257Z,4.90
2023-01-02T23:08:59.459Z,5.20
2023-01-02T23:11:49.738Z,5.30
2023-01-02T23:14:40.104Z,5.60
2023-01-02T23:17:47.709Z,5.60
2023-01-02T23:20:37.934Z,5.30
2023-01-02T23:23:28.444Z,5.40
2023-01-02T23:26:20.039Z,5.50
2023-01-02T23:29:10.016Z,5.00
2023-01-02T23:32:00.301Z,4.30
2023-01-02T23:34:50.194Z,5.10
2023-01-02T23:37:41.096Z,4.60
2023-01-02T23:40:34.319Z,4.80
2023-01-02T23:43:24.666Z,4.50
2023-01-02T23:46:15.030Z,4.50
2023-01-02T23:49:06.347Z,4.50
2023-01-02T23:51:56.570Z,4.60
2023-01-02T23:54:46.740Z,4.30
2023-01-02T23:57:37.130Z,4.40
